sensor_id;sensor_type;location;lat;lon;timestamp;temperature;humidity
62555;DHT22;48610;52.144;8.624;2023-12-20T00:00:09;7.70;99.90
62555;DHT22;48610;52.144;8.624;2023-12-20T00:03:10;7.70;99.90
62555;DHT22;48610;52.144;8.624;2023-12-20T00:06:10;7.60;99.90
62555;DHT22;48610;52.144;8.624;2023-12-20T00:09:11;7.60;99.90
62555;DHT22;48610;52.144;8.624;2023-12-20T00:12:11;7.70;99.90
62555;DHT22;48610;52.144;8.624;2023-12-20T00:15:12;7.80;99.90
62555;DHT22;48610;52.144;8.624;2023-12-20T00:18:13;7.70;99.90
62555;DHT22;48610;52.144;8.624;2023-12-20T00:21:13;7.70;99.90
62555;DHT22;48610;52.144;8.624;2023-12-20T00:24:14;7.70;99.90
62555;DHT22;48610;52.144;8.624;2023-12-20T00:27:15;7.60;99.90
62555;DHT22;48610;52.144;8.624;2023-12-20T00:30:16;7.60;99.90
62555;DHT22;48610;52.144;8.624;2023-12-20T00:33:16;7.70;99.90
62555;DHT22;48610;52.144;8.624;2023-12-20T00:36:17;7.60;99.90
62555;DHT22;48610;52.144;8.624;2023-12-20T00:39:18;7.60;99.90
62555;DHT22;48610;52.144;8.624;2023-12-20T00:42:18;7.60;99.90
62555;DHT22;48610;52.144;8.624;2023-12-20T00:45:19;7.60;99.90
62555;DHT22;48610;52.144;8.624;2023-12-20T00:48:20;7.50;99.90
62555;DHT22;48610;52.144;8.624;2023-12-20T00:51:20;7.40;99.90
62555;DHT22;48610;52.144;8.624;2023-12-20T00:54:21;7.40;99.90
62555;DHT22;48610;52.144;8.624;2023-12-20T00:57:21;7.40;99.90
62555;DHT22;48610;52.144;8.624;2023-12-20T01:00:22;7.40;99.90
62555;DHT22;48610;52.144;8.624;2023-12-20T01:03:22;7.40;99.90
62555;DHT22;48610;52.144;8.624;2023-12-20T01:06:23;7.40;99.90
62555;DHT22;48610;52.144;8.624;2023-12-20T01:09:24;7.40;99.90
62555;DHT22;48610;52.144;8.624;2023-12-20T01:12:26;7.40;99.90
62555;DHT22;48610;52.144;8.624;2023-12-20T01:15:27;7.30;99.90
62555;DHT22;48610;52.144;8.624;2023-12-20T01:18:28;7.20;99.90
62555;DHT22;48610;52.144;8.624;2023-12-20T01:21:28;7.40;99.90
62555;DHT22;48610;52.144;8.624;2023-12-20T01:24:29;7.40;99.90
62555;DHT22;48610;52.144;8.624;2023-12-20T01:27:30;7.30;99.90
62555;DHT22;48610;52.144;8.624;2023-12-20T01:30:31;7.10;99.90
62555;DHT22;48610;52.144;8.624;2023-12-20T01:33:32;7.10;99.90
62555;DHT22;48610;52.144;8.624;2023-12-20T01:36:32;7.20;99.90
62555;DHT22;48610;52.144;8.624;2023-12-20T01:39:33;7.20;99.90
62555;DHT22;48610;52.144;8.624;2023-12-20T01:42:33;7.20;99.90
62555;DHT22;48610;52.144;8.624;2023-12-20T01:45:34;7.20;99.90
62555;DHT22;48610;52.144;8.624;2023-12-20T01:48:35;7.20;99.90
62555;DHT22;48610;52.144;8.624;2023-12-20T01:51:36;7.20;99.90
62555;DHT22;48610;52.144;8.624;2023-12-20T01:54:37;7.20;99.90
62555;DHT22;48610;52.144;8.624;2023-12-20T01:57:43;7.20;99.90
62555;DHT22;48610;52.144;8.624;2023-12-20T02:00:45;7.10;99.90
62555;DHT22;48610;52.144;8.624;2023-12-20T02:03:45;7.10;99.90
62555;DHT22;48610;52.144;8.624;2023-12-20T02:06:46;7.10;99.90
62555;DHT22;48610;52.144;8.624;2023-12-20T02:09:48;7.10;99.90
62555;DHT22;48610;52.144;8.624;2023-12-20T02:12:49;7.10;99.90
62555;DHT22;48610;52.144;8.624;2023-12-20T02:15:49;7.20;99.90
62555;DHT22;48610;52.144;8.624;2023-12-20T02:18:50;7.10;99.90
62555;DHT22;48610;52.144;8.624;2023-12-20T02:22:05;7.20;99.90
62555;DHT22;48610;52.144;8.624;2023-12-20T02:25:06;6.80;99.90
62555;DHT22;48610;52.144;8.624;2023-12-20T02:28:07;6.80;99.90
62555;DHT22;48610;52.144;8.624;2023-12-20T02:31:08;6.80;99.90
62555;DHT22;48610;52.144;8.624;2023-12-20T02:34:09;6.70;99.90
62555;DHT22;48610;52.144;8.624;2023-12-20T02:37:09;6.70;99.90
62555;DHT22;48610;52.144;8.624;2023-12-20T02:40:10;6.80;99.90
62555;DHT22;48610;52.144;8.624;2023-12-20T02:43:10;6.80;99.90
62555;DHT22;48610;52.144;8.624;2023-12-20T02:46:12;6.70;99.90
62555;DHT22;48610;52.144;8.624;2023-12-20T02:49:14;6.70;99.90
62555;DHT22;48610;52.144;8.624;2023-12-20T02:52:15;6.70;99.90
62555;DHT22;48610;52.144;8.624;2023-12-20T02:55:15;6.70;99.90
62555;DHT22;48610;52.144;8.624;2023-12-20T02:58:16;6.70;99.90
62555;DHT22;48610;52.144;8.624;2023-12-20T03:01:18;6.60;99.90
62555;DHT22;48610;52.144;8.624;2023-12-20T03:04:18;6.70;99.90
62555;DHT22;48610;52.144;8.624;2023-12-20T03:07:19;6.70;99.90
62555;DHT22;48610;52.144;8.624;2023-12-20T03:10:19;6.70;99.90
62555;DHT22;48610;52.144;8.624;2023-12-20T03:13:20;6.70;99.90
62555;DHT22;48610;52.144;8.624;2023-12-20T03:16:20;6.70;99.90
62555;DHT22;48610;52.144;8.624;2023-12-20T03:19:21;6.80;99.90
62555;DHT22;48610;52.144;8.624;2023-12-20T03:22:22;6.90;99.90
62555;DHT22;48610;52.144;8.624;2023-12-20T03:25:22;7.00;99.90
62555;DHT22;48610;52.144;8.624;2023-12-20T03:28:23;6.90;99.90
62555;DHT22;48610;52.144;8.624;2023-12-20T03:31:24;7.00;99.90
62555;DHT22;48610;52.144;8.624;2023-12-20T03:34:24;6.90;99.90
62555;DHT22;48610;52.144;8.624;2023-12-20T03:37:25;6.90;99.90
62555;DHT22;48610;52.144;8.624;2023-12-20T03:40:26;6.80;99.90
62555;DHT22;48610;52.144;8.624;2023-12-20T03:43:26;6.80;99.90
62555;DHT22;48610;52.144;8.624;2023-12-20T03:46:27;6.80;99.90
62555;DHT22;48610;52.144;8.624;2023-12-20T03:49:28;6.80;99.90
62555;DHT22;48610;52.144;8.624;2023-12-20T03:52:28;6.80;99.90
62555;DHT22;48610;52.144;8.624;2023-12-20T03:55:29;6.70;99.90
62555;DHT22;48610;52.144;8.624;2023-12-20T03:58:29;6.80;99.90
62555;DHT22;48610;52.144;8.624;2023-12-20T04:01:30;6.80;99.90
62555;DHT22;48610;52.144;8.624;2023-12-20T04:04:30;6.80;99.90
62555;DHT22;48610;52.144;8.624;2023-12-20T04:07:31;6.90;99.90
62555;DHT22;48610;52.144;8.624;2023-12-20T04:10:32;6.80;99.90
62555;DHT22;48610;52.144;8.624;2023-12-20T04:13:32;6.90;99.90
62555;DHT22;48610;52.144;8.624;2023-12-20T04:16:33;6.90;99.90
62555;DHT22;48610;52.144;8.624;2023-12-20T04:19:34;6.80;99.90
62555;DHT22;48610;52.144;8.624;2023-12-20T04:22:34;6.80;99.90
62555;DHT22;48610;52.144;8.624;2023-12-20T04:25:35;6.80;99.90
62555;DHT22;48610;52.144;8.624;2023-12-20T04:28:36;6.90;99.90
62555;DHT22;48610;52.144;8.624;2023-12-20T04:31:36;6.90;99.90
62555;DHT22;48610;52.144;8.624;2023-12-20T04:34:37;6.90;99.90
62555;DHT22;48610;52.144;8.624;2023-12-20T04:37:37;6.90;99.90
62555;DHT22;48610;52.144;8.624;2023-12-20T04:40:38;6.80;99.90
62555;DHT22;48610;52.144;8.624;2023-12-20T04:43:41;6.80;99.90
62555;DHT22;48610;52.144;8.624;2023-12-20T04:46:42;6.80;99.90
62555;DHT22;48610;52.144;8.624;2023-12-20T04:49:43;6.80;99.90
62555;DHT22;48610;52.144;8.624;2023-12-20T04:52:43;6.80;99.90
62555;DHT22;48610;52.144;8.624;2023-12-20T04:55:44;6.80;99.90
62555;DHT22;48610;52.144;8.624;2023-12-20T04:58:44;6.70;99.90
62555;DHT22;48610;52.144;8.624;2023-12-20T05:01:45;6.70;99.90
62555;DHT22;48610;52.144;8.624;2023-12-20T05:04:46;6.70;99.90
62555;DHT22;48610;52.144;8.624;2023-12-20T05:07:47;6.90;99.90
62555;DHT22;48610;52.144;8.624;2023-12-20T05:10:47;6.90;99.90
62555;DHT22;48610;52.144;8.624;2023-12-20T05:13:48;6.80;99.90
62555;DHT22;48610;52.144;8.624;2023-12-20T05:16:49;6.80;99.90
62555;DHT22;48610;52.144;8.624;2023-12-20T05:19:49;6.80;99.90
62555;DHT22;48610;52.144;8.624;2023-12-20T05:22:50;6.80;99.90
62555;DHT22;48610;52.144;8.624;2023-12-20T05:25:50;6.80;99.90
62555;DHT22;48610;52.144;8.624;2023-12-20T05:28:51;6.80;99.90
62555;DHT22;48610;52.144;8.624;2023-12-20T05:31:52;6.70;99.90
62555;DHT22;48610;52.144;8.624;2023-12-20T05:34:52;6.80;99.90
62555;DHT22;48610;52.144;8.624;2023-12-20T05:37:53;6.80;99.90
62555;DHT22;48610;52.144;8.624;2023-12-20T05:40:53;6.70;99.90
62555;DHT22;48610;52.144;8.624;2023-12-20T05:43:54;6.70;99.90
62555;DHT22;48610;52.144;8.624;2023-12-20T05:46:55;6.80;99.90
62555;DHT22;48610;52.144;8.624;2023-12-20T05:49:55;6.60;99.90
62555;DHT22;48610;52.144;8.624;2023-12-20T05:52:56;6.70;99.90
62555;DHT22;48610;52.144;8.624;2023-12-20T05:55:57;6.70;99.90
62555;DHT22;48610;52.144;8.624;2023-12-20T05:58:57;6.70;99.90
62555;DHT22;48610;52.144;8.624;2023-12-20T06:01:59;6.60;99.90
62555;DHT22;48610;52.144;8.624;2023-12-20T06:04:59;6.70;99.90
62555;DHT22;48610;52.144;8.624;2023-12-20T06:08:00;6.80;99.90
62555;DHT22;48610;52.144;8.624;2023-12-20T06:11:03;6.70;99.90
62555;DHT22;48610;52.144;8.624;2023-12-20T06:14:04;6.70;99.90
62555;DHT22;48610;52.144;8.624;2023-12-20T06:17:05;6.70;99.90
62555;DHT22;48610;52.144;8.624;2023-12-20T06:20:07;6.70;99.90
62555;DHT22;48610;52.144;8.624;2023-12-20T06:23:08;6.80;99.90
62555;DHT22;48610;52.144;8.624;2023-12-20T06:26:08;6.80;99.90
62555;DHT22;48610;52.144;8.624;2023-12-20T06:29:09;6.80;99.90
62555;DHT22;48610;52.144;8.624;2023-12-20T06:32:10;6.70;99.90
62555;DHT22;48610;52.144;8.624;2023-12-20T06:35:10;6.70;99.90
62555;DHT22;48610;52.144;8.624;2023-12-20T06:38:11;6.80;99.90
62555;DHT22;48610;52.144;8.624;2023-12-20T06:41:13;6.80;99.90
62555;DHT22;48610;52.144;8.624;2023-12-20T06:44:14;6.80;99.90
62555;DHT22;48610;52.144;8.624;2023-12-20T06:47:15;6.80;99.90
62555;DHT22;48610;52.144;8.624;2023-12-20T06:50:16;6.70;99.90
62555;DHT22;48610;52.144;8.624;2023-12-20T06:53:16;6.80;99.90
62555;DHT22;48610;52.144;8.624;2023-12-20T06:56:17;6.80;99.90
62555;DHT22;48610;52.144;8.624;2023-12-20T06:59:18;6.90;99.90
62555;DHT22;48610;52.144;8.624;2023-12-20T07:02:18;7.00;99.90
62555;DHT22;48610;52.144;8.624;2023-12-20T07:05:19;7.00;99.90
62555;DHT22;48610;52.144;8.624;2023-12-20T07:08:20;7.00;99.90
62555;DHT22;48610;52.144;8.624;2023-12-20T07:11:21;7.10;99.90
62555;DHT22;48610;52.144;8.624;2023-12-20T07:14:21;7.10;99.90
62555;DHT22;48610;52.144;8.624;2023-12-20T07:17:22;7.20;99.90
62555;DHT22;48610;52.144;8.624;2023-12-20T07:20:23;7.20;99.90
62555;DHT22;48610;52.144;8.624;2023-12-20T07:23:23;7.10;99.90
62555;DHT22;48610;52.144;8.624;2023-12-20T07:26:26;7.10;99.90
62555;DHT22;48610;52.144;8.624;2023-12-20T07:29:26;7.10;99.90
62555;DHT22;48610;52.144;8.624;2023-12-20T07:32:27;7.20;99.90
62555;DHT22;48610;52.144;8.624;2023-12-20T07:35:27;7.20;99.90
62555;DHT22;48610;52.144;8.624;2023-12-20T07:38:28;7.00;99.90
62555;DHT22;48610;52.144;8.624;2023-12-20T07:41:29;7.00;99.90
62555;DHT22;48610;52.144;8.624;2023-12-20T07:44:29;7.10;99.90
62555;DHT22;48610;52.144;8.624;2023-12-20T07:47:30;7.00;99.90
62555;DHT22;48610;52.144;8.624;2023-12-20T07:50:30;7.20;99.90
62555;DHT22;48610;52.144;8.624;2023-12-20T07:53:31;7.20;99.90
62555;DHT22;48610;52.144;8.624;2023-12-20T07:56:31;7.10;99.90
62555;DHT22;48610;52.144;8.624;2023-12-20T07:59:32;7.10;99.90
62555;DHT22;48610;52.144;8.624;2023-12-20T08:02:33;7.20;99.90
62555;DHT22;48610;52.144;8.624;2023-12-20T08:05:33;7.30;99.90
62555;DHT22;48610;52.144;8.624;2023-12-20T08:08:34;7.30;99.90
62555;DHT22;48610;52.144;8.624;2023-12-20T08:11:34;7.20;99.90
62555;DHT22;48610;52.144;8.624;2023-12-20T08:14:35;7.10;99.90
62555;DHT22;48610;52.144;8.624;2023-12-20T08:17:36;7.10;99.90
62555;DHT22;48610;52.144;8.624;2023-12-20T08:20:36;7.20;99.90
62555;DHT22;48610;52.144;8.624;2023-12-20T08:23:37;7.10;99.90
62555;DHT22;48610;52.144;8.624;2023-12-20T08:26:37;7.10;99.90
62555;DHT22;48610;52.144;8.624;2023-12-20T08:29:38;7.10;99.90
62555;DHT22;48610;52.144;8.624;2023-12-20T08:32:38;7.20;99.90
62555;DHT22;48610;52.144;8.624;2023-12-20T08:35:39;7.20;99.90
62555;DHT22;48610;52.144;8.624;2023-12-20T08:38:40;7.30;99.90
62555;DHT22;48610;52.144;8.624;2023-12-20T08:41:41;7.40;99.90
62555;DHT22;48610;52.144;8.624;2023-12-20T08:44:41;7.30;99.90
62555;DHT22;48610;52.144;8.624;2023-12-20T08:47:42;7.30;99.90
62555;DHT22;48610;52.144;8.624;2023-12-20T08:50:44;7.30;99.90
62555;DHT22;48610;52.144;8.624;2023-12-20T08:53:45;7.20;99.90
62555;DHT22;48610;52.144;8.624;2023-12-20T08:56:48;7.20;99.90
62555;DHT22;48610;52.144;8.624;2023-12-20T08:59:49;7.20;99.90
62555;DHT22;48610;52.144;8.624;2023-12-20T09:02:50;7.10;99.90
62555;DHT22;48610;52.144;8.624;2023-12-20T09:05:51;7.00;99.90
62555;DHT22;48610;52.144;8.624;2023-12-20T09:08:51;7.00;99.90
62555;DHT22;48610;52.144;8.624;2023-12-20T09:11:52;7.10;99.90
62555;DHT22;48610;52.144;8.624;2023-12-20T09:14:53;7.10;99.90
62555;DHT22;48610;52.144;8.624;2023-12-20T09:17:54;7.10;99.90
62555;DHT22;48610;52.144;8.624;2023-12-20T09:20:55;7.20;99.90
62555;DHT22;48610;52.144;8.624;2023-12-20T09:23:55;7.20;99.90
62555;DHT22;48610;52.144;8.624;2023-12-20T09:26:56;7.10;99.90
62555;DHT22;48610;52.144;8.624;2023-12-20T09:29:57;7.10;99.90
62555;DHT22;48610;52.144;8.624;2023-12-20T09:32:57;7.20;99.90
62555;DHT22;48610;52.144;8.624;2023-12-20T09:35:58;7.10;99.90
62555;DHT22;48610;52.144;8.624;2023-12-20T09:38:59;7.10;99.90
62555;DHT22;48610;52.144;8.624;2023-12-20T09:42:04;7.20;99.90
62555;DHT22;48610;52.144;8.624;2023-12-20T09:45:09;7.20;99.90
62555;DHT22;48610;52.144;8.624;2023-12-20T09:48:13;7.30;99.90
62555;DHT22;48610;52.144;8.624;2023-12-20T09:51:15;7.30;99.90
62555;DHT22;48610;52.144;8.624;2023-12-20T09:54:19;7.40;99.90
62555;DHT22;48610;52.144;8.624;2023-12-20T09:57:21;7.30;99.90
62555;DHT22;48610;52.144;8.624;2023-12-20T10:00:21;7.30;99.90
62555;DHT22;48610;52.144;8.624;2023-12-20T10:03:24;7.30;99.90
62555;DHT22;48610;52.144;8.624;2023-12-20T10:06:26;7.40;99.90
62555;DHT22;48610;52.144;8.624;2023-12-20T10:09:28;7.60;99.90
62555;DHT22;48610;52.144;8.624;2023-12-20T10:12:30;7.50;99.90
62555;DHT22;48610;52.144;8.624;2023-12-20T10:15:36;7.40;99.90
62555;DHT22;48610;52.144;8.624;2023-12-20T10:18:37;7.40;99.90
62555;DHT22;48610;52.144;8.624;2023-12-20T10:21:37;7.30;99.90
62555;DHT22;48610;52.144;8.624;2023-12-20T10:24:39;7.30;99.90
62555;DHT22;48610;52.144;8.624;2023-12-20T10:27:40;7.30;99.90
62555;DHT22;48610;52.144;8.624;2023-12-20T10:30:41;7.30;99.90
62555;DHT22;48610;52.144;8.624;2023-12-20T10:33:42;7.30;99.90
62555;DHT22;48610;52.144;8.624;2023-12-20T10:36:42;7.30;99.90
62555;DHT22;48610;52.144;8.624;2023-12-20T10:39:43;7.20;99.90
62555;DHT22;48610;52.144;8.624;2023-12-20T10:42:44;7.30;99.90
62555;DHT22;48610;52.144;8.624;2023-12-20T10:45:45;7.30;99.90
62555;DHT22;48610;52.144;8.624;2023-12-20T10:48:45;7.40;99.90
62555;DHT22;48610;52.144;8.624;2023-12-20T10:51:47;7.30;99.90
62555;DHT22;48610;52.144;8.624;2023-12-20T10:54:49;7.30;99.90
62555;DHT22;48610;52.144;8.624;2023-12-20T10:57:51;7.30;99.90
62555;DHT22;48610;52.144;8.624;2023-12-20T11:00:56;7.30;99.90
62555;DHT22;48610;52.144;8.624;2023-12-20T11:04:00;7.40;99.90
62555;DHT22;48610;52.144;8.624;2023-12-20T11:07:15;7.70;99.90
62555;DHT22;48610;52.144;8.624;2023-12-20T11:10:20;7.80;99.90
62555;DHT22;48610;52.144;8.624;2023-12-20T11:13:53;8.10;99.90
62555;DHT22;48610;52.144;8.624;2023-12-20T11:17:20;8.80;99.90
62555;DHT22;48610;52.144;8.624;2023-12-20T11:20:44;9.00;99.90
62555;DHT22;48610;52.144;8.624;2023-12-20T11:23:43;9.20;99.90
62555;DHT22;48610;52.144;8.624;2023-12-20T11:26:47;9.60;99.90
62555;DHT22;48610;52.144;8.624;2023-12-20T11:29:56;9.30;99.90
62555;DHT22;48610;52.144;8.624;2023-12-20T11:32:57;9.00;99.90
62555;DHT22;48610;52.144;8.624;2023-12-20T11:35:59;8.90;99.90
62555;DHT22;48610;52.144;8.624;2023-12-20T11:39:00;8.80;99.90
62555;DHT22;48610;52.144;8.624;2023-12-20T11:42:07;8.40;99.90
62555;DHT22;48610;52.144;8.624;2023-12-20T11:45:13;8.30;99.90
62555;DHT22;48610;52.144;8.624;2023-12-20T11:48:15;8.10;99.90
62555;DHT22;48610;52.144;8.624;2023-12-20T11:51:16;8.20;99.90
62555;DHT22;48610;52.144;8.624;2023-12-20T11:54:16;8.10;99.90
62555;DHT22;48610;52.144;8.624;2023-12-20T11:57:17;8.10;99.90
62555;DHT22;48610;52.144;8.624;2023-12-20T12:00:18;8.00;99.90
62555;DHT22;48610;52.144;8.624;2023-12-20T12:03:19;8.00;99.90
62555;DHT22;48610;52.144;8.624;2023-12-20T12:06:19;8.00;99.90
62555;DHT22;48610;52.144;8.624;2023-12-20T12:09:20;7.90;99.90
62555;DHT22;48610;52.144;8.624;2023-12-20T12:12:21;7.90;99.90
62555;DHT22;48610;52.144;8.624;2023-12-20T12:15:21;7.80;99.90
62555;DHT22;48610;52.144;8.624;2023-12-20T12:18:22;7.70;99.90
62555;DHT22;48610;52.144;8.624;2023-12-20T12:21:23;7.70;99.90
62555;DHT22;48610;52.144;8.624;2023-12-20T12:24:24;7.70;99.90
62555;DHT22;48610;52.144;8.624;2023-12-20T12:27:25;7.70;99.90
62555;DHT22;48610;52.144;8.624;2023-12-20T12:30:25;7.60;99.90
62555;DHT22;48610;52.144;8.624;2023-12-20T12:33:26;7.70;99.90
62555;DHT22;48610;52.144;8.624;2023-12-20T12:36:28;7.70;99.90
62555;DHT22;48610;52.144;8.624;2023-12-20T12:39:29;7.70;99.90
62555;DHT22;48610;52.144;8.624;2023-12-20T12:42:30;7.60;99.90
62555;DHT22;48610;52.144;8.624;2023-12-20T12:45:31;7.60;99.90
62555;DHT22;48610;52.144;8.624;2023-12-20T12:48:31;7.40;99.90
62555;DHT22;48610;52.144;8.624;2023-12-20T12:51:32;7.10;99.90
62555;DHT22;48610;52.144;8.624;2023-12-20T12:54:33;7.00;99.90
62555;DHT22;48610;52.144;8.624;2023-12-20T12:57:34;6.90;99.90
62555;DHT22;48610;52.144;8.624;2023-12-20T13:00:34;6.80;99.90
62555;DHT22;48610;52.144;8.624;2023-12-20T13:03:35;6.80;99.90
62555;DHT22;48610;52.144;8.624;2023-12-20T13:06:37;6.80;99.90
62555;DHT22;48610;52.144;8.624;2023-12-20T13:09:39;6.80;99.90
62555;DHT22;48610;52.144;8.624;2023-12-20T13:12:39;6.70;99.90
62555;DHT22;48610;52.144;8.624;2023-12-20T13:15:40;6.80;99.90
62555;DHT22;48610;52.144;8.624;2023-12-20T13:18:41;6.70;99.90
62555;DHT22;48610;52.144;8.624;2023-12-20T13:21:43;6.80;99.90
62555;DHT22;48610;52.144;8.624;2023-12-20T13:24:43;6.80;99.90
62555;DHT22;48610;52.144;8.624;2023-12-20T13:27:44;6.80;99.90
62555;DHT22;48610;52.144;8.624;2023-12-20T13:30:46;6.80;99.90
62555;DHT22;48610;52.144;8.624;2023-12-20T13:33:46;6.90;99.90
62555;DHT22;48610;52.144;8.624;2023-12-20T13:36:47;7.00;99.90
62555;DHT22;48610;52.144;8.624;2023-12-20T13:39:48;7.00;99.90
62555;DHT22;48610;52.144;8.624;2023-12-20T13:42:48;7.10;99.90
62555;DHT22;48610;52.144;8.624;2023-12-20T13:45:49;7.10;99.90
62555;DHT22;48610;52.144;8.624;2023-12-20T13:48:50;7.10;99.90
62555;DHT22;48610;52.144;8.624;2023-12-20T13:51:50;7.10;99.90
62555;DHT22;48610;52.144;8.624;2023-12-20T13:54:51;7.10;99.90
62555;DHT22;48610;52.144;8.624;2023-12-20T13:57:51;7.10;99.90
62555;DHT22;48610;52.144;8.624;2023-12-20T14:00:52;7.10;99.90
62555;DHT22;48610;52.144;8.624;2023-12-20T14:03:53;7.10;99.90
62555;DHT22;48610;52.144;8.624;2023-12-20T14:06:54;7.10;99.90
62555;DHT22;48610;52.144;8.624;2023-12-20T14:09:55;7.00;99.90
62555;DHT22;48610;52.144;8.624;2023-12-20T14:12:55;7.00;99.90
62555;DHT22;48610;52.144;8.624;2023-12-20T14:15:56;7.00;99.90
62555;DHT22;48610;52.144;8.624;2023-12-20T14:18:58;7.00;99.90
62555;DHT22;48610;52.144;8.624;2023-12-20T14:21:58;7.00;99.90
62555;DHT22;48610;52.144;8.624;2023-12-20T14:25:03;6.90;99.90
62555;DHT22;48610;52.144;8.624;2023-12-20T14:28:04;7.00;99.90
62555;DHT22;48610;52.144;8.624;2023-12-20T14:31:05;7.00;99.90
62555;DHT22;48610;52.144;8.624;2023-12-20T14:34:06;7.00;99.90
62555;DHT22;48610;52.144;8.624;2023-12-20T14:37:07;6.90;99.90
62555;DHT22;48610;52.144;8.624;2023-12-20T14:40:08;6.90;99.90
62555;DHT22;48610;52.144;8.624;2023-12-20T14:43:15;7.00;99.90
62555;DHT22;48610;52.144;8.624;2023-12-20T14:46:17;7.00;99.90
62555;DHT22;48610;52.144;8.624;2023-12-20T14:49:17;7.00;99.90
62555;DHT22;48610;52.144;8.624;2023-12-20T14:52:18;6.90;99.90
62555;DHT22;48610;52.144;8.624;2023-12-20T14:55:19;6.90;99.90
62555;DHT22;48610;52.144;8.624;2023-12-20T14:58:20;6.90;99.90
62555;DHT22;48610;52.144;8.624;2023-12-20T15:01:20;6.80;99.90
62555;DHT22;48610;52.144;8.624;2023-12-20T15:04:22;6.80;99.90
62555;DHT22;48610;52.144;8.624;2023-12-20T15:07:28;6.70;99.90
62555;DHT22;48610;52.144;8.624;2023-12-20T15:10:29;6.70;99.90
62555;DHT22;48610;52.144;8.624;2023-12-20T15:13:31;6.80;99.90
62555;DHT22;48610;52.144;8.624;2023-12-20T15:16:32;6.80;99.90
62555;DHT22;48610;52.144;8.624;2023-12-20T15:19:33;6.80;99.90
62555;DHT22;48610;52.144;8.624;2023-12-20T15:22:33;6.80;99.90
62555;DHT22;48610;52.144;8.624;2023-12-20T15:25:35;6.80;99.90
62555;DHT22;48610;52.144;8.624;2023-12-20T15:28:36;6.90;99.90
62555;DHT22;48610;52.144;8.624;2023-12-20T15:31:41;6.90;99.90
62555;DHT22;48610;52.144;8.624;2023-12-20T15:34:42;6.80;99.90
62555;DHT22;48610;52.144;8.624;2023-12-20T15:37:43;6.80;99.90
62555;DHT22;48610;52.144;8.624;2023-12-20T15:40:43;6.80;99.90
62555;DHT22;48610;52.144;8.624;2023-12-20T15:43:44;6.90;99.90
62555;DHT22;48610;52.144;8.624;2023-12-20T15:46:45;6.80;99.90
62555;DHT22;48610;52.144;8.624;2023-12-20T15:49:46;6.90;99.90
62555;DHT22;48610;52.144;8.624;2023-12-20T15:52:47;6.90;99.90
62555;DHT22;48610;52.144;8.624;2023-12-20T15:55:48;6.80;99.90
62555;DHT22;48610;52.144;8.624;2023-12-20T15:58:48;6.90;99.90
62555;DHT22;48610;52.144;8.624;2023-12-20T16:01:49;6.80;99.90
62555;DHT22;48610;52.144;8.624;2023-12-20T16:04:50;6.80;99.90
62555;DHT22;48610;52.144;8.624;2023-12-20T16:07:50;6.80;99.90
62555;DHT22;48610;52.144;8.624;2023-12-20T16:10:51;6.80;99.90
62555;DHT22;48610;52.144;8.624;2023-12-20T16:13:52;6.90;99.90
62555;DHT22;48610;52.144;8.624;2023-12-20T16:16:53;6.80;99.90
62555;DHT22;48610;52.144;8.624;2023-12-20T16:19:53;6.80;99.90
62555;DHT22;48610;52.144;8.624;2023-12-20T16:22:54;6.80;99.90
62555;DHT22;48610;52.144;8.624;2023-12-20T16:25:55;6.80;99.90
62555;DHT22;48610;52.144;8.624;2023-12-20T16:28:56;6.90;99.90
62555;DHT22;48610;52.144;8.624;2023-12-20T16:31:56;7.00;99.90
62555;DHT22;48610;52.144;8.624;2023-12-20T16:34:57;7.00;99.90
62555;DHT22;48610;52.144;8.624;2023-12-20T16:37:58;7.00;99.90
62555;DHT22;48610;52.144;8.624;2023-12-20T16:40:59;7.00;99.90
62555;DHT22;48610;52.144;8.624;2023-12-20T16:44:00;7.00;99.90
62555;DHT22;48610;52.144;8.624;2023-12-20T16:47:03;7.00;99.90
62555;DHT22;48610;52.144;8.624;2023-12-20T16:50:05;7.00;99.90
62555;DHT22;48610;52.144;8.624;2023-12-20T16:53:06;7.10;99.90
62555;DHT22;48610;52.144;8.624;2023-12-20T16:56:07;7.20;99.90
62555;DHT22;48610;52.144;8.624;2023-12-20T16:59:08;7.20;99.90
62555;DHT22;48610;52.144;8.624;2023-12-20T17:02:09;7.30;99.90
62555;DHT22;48610;52.144;8.624;2023-12-20T17:05:09;7.30;99.90
62555;DHT22;48610;52.144;8.624;2023-12-20T17:08:10;7.30;99.90
62555;DHT22;48610;52.144;8.624;2023-12-20T17:11:11;7.30;99.90
62555;DHT22;48610;52.144;8.624;2023-12-20T17:14:11;7.30;99.90
62555;DHT22;48610;52.144;8.624;2023-12-20T17:17:13;7.40;99.90
62555;DHT22;48610;52.144;8.624;2023-12-20T17:20:13;7.50;99.90
62555;DHT22;48610;52.144;8.624;2023-12-20T17:23:14;7.40;99.90
62555;DHT22;48610;52.144;8.624;2023-12-20T17:26:15;7.50;99.90
62555;DHT22;48610;52.144;8.624;2023-12-20T17:29:15;7.50;99.90
62555;DHT22;48610;52.144;8.624;2023-12-20T17:32:16;7.50;99.90
62555;DHT22;48610;52.144;8.624;2023-12-20T17:35:17;7.50;99.90
62555;DHT22;48610;52.144;8.624;2023-12-20T17:38:18;7.50;99.90
62555;DHT22;48610;52.144;8.624;2023-12-20T17:41:19;7.60;99.90
62555;DHT22;48610;52.144;8.624;2023-12-20T17:44:19;7.60;99.90
62555;DHT22;48610;52.144;8.624;2023-12-20T17:47:20;7.60;99.90
62555;DHT22;48610;52.144;8.624;2023-12-20T17:50:21;7.70;99.90
62555;DHT22;48610;52.144;8.624;2023-12-20T17:53:22;7.70;99.90
62555;DHT22;48610;52.144;8.624;2023-12-20T17:56:23;7.80;99.90
62555;DHT22;48610;52.144;8.624;2023-12-20T17:59:24;7.70;99.90
62555;DHT22;48610;52.144;8.624;2023-12-20T18:02:24;7.70;99.90
62555;DHT22;48610;52.144;8.624;2023-12-20T18:05:25;7.80;99.90
62555;DHT22;48610;52.144;8.624;2023-12-20T18:08:26;7.60;99.90
62555;DHT22;48610;52.144;8.624;2023-12-20T18:11:27;7.60;99.90
62555;DHT22;48610;52.144;8.624;2023-12-20T18:14:27;7.70;99.90
62555;DHT22;48610;52.144;8.624;2023-12-20T18:17:30;7.70;99.90
62555;DHT22;48610;52.144;8.624;2023-12-20T18:20:31;7.70;99.90
62555;DHT22;48610;52.144;8.624;2023-12-20T18:23:31;7.70;99.90
62555;DHT22;48610;52.144;8.624;2023-12-20T18:26:32;7.60;99.90
62555;DHT22;48610;52.144;8.624;2023-12-20T18:29:35;7.60;99.90
62555;DHT22;48610;52.144;8.624;2023-12-20T18:32:36;7.60;99.90
62555;DHT22;48610;52.144;8.624;2023-12-20T18:35:37;7.60;99.90
62555;DHT22;48610;52.144;8.624;2023-12-20T18:38:40;7.60;99.90
62555;DHT22;48610;52.144;8.624;2023-12-20T18:41:40;7.70;99.90
62555;DHT22;48610;52.144;8.624;2023-12-20T18:44:47;7.70;99.90
62555;DHT22;48610;52.144;8.624;2023-12-20T18:47:48;7.60;99.90
62555;DHT22;48610;52.144;8.624;2023-12-20T18:50:49;7.70;99.90
62555;DHT22;48610;52.144;8.624;2023-12-20T18:53:49;7.80;99.90
62555;DHT22;48610;52.144;8.624;2023-12-20T18:56:50;7.70;99.90
62555;DHT22;48610;52.144;8.624;2023-12-20T18:59:53;7.70;99.90
62555;DHT22;48610;52.144;8.624;2023-12-20T19:02:53;7.70;99.90
62555;DHT22;48610;52.144;8.624;2023-12-20T19:05:54;7.70;99.90
62555;DHT22;48610;52.144;8.624;2023-12-20T19:08:55;7.70;99.90
62555;DHT22;48610;52.144;8.624;2023-12-20T19:11:57;7.70;99.90
62555;DHT22;48610;52.144;8.624;2023-12-20T19:14:57;7.70;99.90
62555;DHT22;48610;52.144;8.624;2023-12-20T19:17:58;7.70;99.90
62555;DHT22;48610;52.144;8.624;2023-12-20T19:20:58;7.70;99.90